sensor_id;sensor_type;location;lat;lon;timestamp;P1;durP1;ratioP1;P2;durP2;ratioP2
10945;SDS011;5525;42.648;23.368;2023-07-31T00:02:19;4.13;;;3.72;;
10945;SDS011;5525;42.648;23.368;2023-07-31T00:04:45;4.00;;;3.60;;
10945;SDS011;5525;42.648;23.368;2023-07-31T00:07:12;3.90;;;3.50;;
10945;SDS011;5525;42.648;23.368;2023-07-31T00:09:38;4.10;;;3.33;;
10945;SDS011;5525;42.648;23.368;2023-07-31T00:12:05;3.97;;;3.45;;
10945;SDS011;5525;42.648;23.368;2023-07-31T00:14:32;4.55;;;3.45;;
10945;SDS011;5525;42.648;23.368;2023-07-31T00:16:59;3.67;;;3.38;;
10945;SDS011;5525;42.648;23.368;2023-07-31T00:19:27;3.85;;;3.55;;
10945;SDS011;5525;42.648;23.368;2023-07-31T00:21:54;4.30;;;3.78;;
10945;SDS011;5525;42.648;23.368;2023-07-31T00:24:21;4.18;;;3.75;;
10945;SDS011;5525;42.648;23.368;2023-07-31T00:26:47;3.63;;;3.33;;
10945;SDS011;5525;42.648;23.368;2023-07-31T00:29:14;3.60;;;3.30;;
10945;SDS011;5525;42.648;23.368;2023-07-31T00:31:40;4.70;;;3.90;;
10945;SDS011;5525;42.648;23.368;2023-07-31T00:34:07;4.53;;;3.47;;
10945;SDS011;5525;42.648;23.368;2023-07-31T00:36:35;3.70;;;3.40;;
10945;SDS011;5525;42.648;23.368;2023-07-31T00:39:02;4.25;;;3.90;;
10945;SDS011;5525;42.648;23.368;2023-07-31T00:41:29;4.50;;;4.10;;
10945;SDS011;5525;42.648;23.368;2023-07-31T00:43:56;4.53;;;4.13;;
10945;SDS011;5525;42.648;23.368;2023-07-31T00:46:23;4.35;;;4.05;;
10945;SDS011;5525;42.648;23.368;2023-07-31T00:48:49;4.38;;;3.97;;
10945;SDS011;5525;42.648;23.368;2023-07-31T00:51:16;4.70;;;4.30;;
10945;SDS011;5525;42.648;23.368;2023-07-31T00:53:44;5.60;;;5.10;;
10945;SDS011;5525;42.648;23.368;2023-07-31T00:56:12;5.07;;;4.68;;
10945;SDS011;5525;42.648;23.368;2023-07-31T00:58:39;5.38;;;4.95;;
10945;SDS011;5525;42.648;23.368;2023-07-31T01:01:06;6.38;;;5.78;;
10945;SDS011;5525;42.648;23.368;2023-07-31T01:03:32;6.57;;;5.97;;
10945;SDS011;5525;42.648;23.368;2023-07-31T01:06:02;6.93;;;6.22;;
10945;SDS011;5525;42.648;23.368;2023-07-31T01:08:37;7.90;;;6.47;;
10945;SDS011;5525;42.648;23.368;2023-07-31T01:11:13;6.70;;;6.10;;
10945;SDS011;5525;42.648;23.368;2023-07-31T01:13:42;7.70;;;7.03;;
10945;SDS011;5525;42.648;23.368;2023-07-31T01:16:10;7.80;;;7.10;;
10945;SDS011;5525;42.648;23.368;2023-07-31T01:18:37;8.65;;;7.85;;
10945;SDS011;5525;42.648;23.368;2023-07-31T01:21:06;8.27;;;7.55;;
10945;SDS011;5525;42.648;23.368;2023-07-31T01:23:51;9.60;;;8.70;;
10945;SDS011;5525;42.648;23.368;2023-07-31T01:26:44;10.10;;;9.10;;
10945;SDS011;5525;42.648;23.368;2023-07-31T01:29:15;10.55;;;9.45;;
10945;SDS011;5525;42.648;23.368;2023-07-31T01:31:48;11.48;;;10.30;;
10945;SDS011;5525;42.648;23.368;2023-07-31T01:34:19;13.15;;;10.70;;
10945;SDS011;5525;42.648;23.368;2023-07-31T01:36:47;12.27;;;11.13;;
10945;SDS011;5525;42.648;23.368;2023-07-31T01:39:14;13.38;;;12.07;;
10945;SDS011;5525;42.648;23.368;2023-07-31T01:41:41;14.90;;;13.30;;
10945;SDS011;5525;42.648;23.368;2023-07-31T01:44:09;15.52;;;14.00;;
10945;SDS011;5525;42.648;23.368;2023-07-31T01:46:35;16.30;;;14.55;;
10945;SDS011;5525;42.648;23.368;2023-07-31T01:49:02;18.50;;;16.52;;
10945;SDS011;5525;42.648;23.368;2023-07-31T01:51:30;17.85;;;16.05;;
10945;SDS011;5525;42.648;23.368;2023-07-31T01:53:59;18.48;;;16.50;;
10945;SDS011;5525;42.648;23.368;2023-07-31T01:56:25;19.80;;;17.30;;
10945;SDS011;5525;42.648;23.368;2023-07-31T01:58:52;21.08;;;17.67;;
10945;SDS011;5525;42.648;23.368;2023-07-31T02:01:20;23.48;;;20.92;;
10945;SDS011;5525;42.648;23.368;2023-07-31T02:03:47;22.33;;;19.92;;
10945;SDS011;5525;42.648;23.368;2023-07-31T02:06:13;22.33;;;19.95;;
10945;SDS011;5525;42.648;23.368;2023-07-31T02:08:40;22.63;;;20.23;;
10945;SDS011;5525;42.648;23.368;2023-07-31T02:11:07;21.92;;;19.45;;
10945;SDS011;5525;42.648;23.368;2023-07-31T02:13:33;22.33;;;19.92;;
10945;SDS011;5525;42.648;23.368;2023-07-31T02:16:00;23.85;;;20.73;;
10945;SDS011;5525;42.648;23.368;2023-07-31T02:18:28;22.88;;;20.48;;
10945;SDS011;5525;42.648;23.368;2023-07-31T02:20:54;23.60;;;21.00;;
10945;SDS011;5525;42.648;23.368;2023-07-31T02:23:21;23.55;;;20.00;;
10945;SDS011;5525;42.648;23.368;2023-07-31T02:25:48;22.63;;;20.23;;
10945;SDS011;5525;42.648;23.368;2023-07-31T02:28:14;22.67;;;20.17;;
10945;SDS011;5525;42.648;23.368;2023-07-31T02:30:43;23.52;;;21.02;;
10945;SDS011;5525;42.648;23.368;2023-07-31T02:33:10;22.63;;;20.23;;
10945;SDS011;5525;42.648;23.368;2023-07-31T02:35:38;22.85;;;20.45;;
10945;SDS011;5525;42.648;23.368;2023-07-31T02:38:05;23.70;;;21.20;;
10945;SDS011;5525;42.648;23.368;2023-07-31T02:40:31;24.63;;;21.25;;
10945;SDS011;5525;42.648;23.368;2023-07-31T02:42:58;23.00;;;20.20;;
10945;SDS011;5525;42.648;23.368;2023-07-31T02:45:25;21.80;;;19.58;;
10945;SDS011;5525;42.648;23.368;2023-07-31T02:47:51;24.20;;;21.60;;
10945;SDS011;5525;42.648;23.368;2023-07-31T02:50:18;22.73;;;20.33;;
10945;SDS011;5525;42.648;23.368;2023-07-31T02:52:46;23.05;;;20.75;;
10945;SDS011;5525;42.648;23.368;2023-07-31T02:55:13;23.02;;;20.73;;
10945;SDS011;5525;42.648;23.368;2023-07-31T02:57:40;22.65;;;20.23;;
10945;SDS011;5525;42.648;23.368;2023-07-31T03:00:07;22.92;;;20.58;;
10945;SDS011;5525;42.648;23.368;2023-07-31T03:02:34;23.02;;;20.67;;
10945;SDS011;5525;42.648;23.368;2023-07-31T03:05:01;22.80;;;20.38;;
10945;SDS011;5525;42.648;23.368;2023-07-31T03:07:28;22.20;;;20.00;;
10945;SDS011;5525;42.648;23.368;2023-07-31T03:09:56;24.30;;;20.92;;
10945;SDS011;5525;42.648;23.368;2023-07-31T03:12:23;22.77;;;20.30;;
10945;SDS011;5525;42.648;23.368;2023-07-31T03:14:49;23.30;;;20.80;;
10945;SDS011;5525;42.648;23.368;2023-07-31T03:17:16;22.88;;;20.25;;
10945;SDS011;5525;42.648;23.368;2023-07-31T03:19:43;21.85;;;19.48;;
10945;SDS011;5525;42.648;23.368;2023-07-31T03:22:09;21.98;;;19.75;;
10945;SDS011;5525;42.648;23.368;2023-07-31T03:24:36;20.58;;;18.45;;
10945;SDS011;5525;42.648;23.368;2023-07-31T03:27:05;22.02;;;19.75;;
10945;SDS011;5525;42.648;23.368;2023-07-31T03:29:32;23.45;;;21.05;;
10945;SDS011;5525;42.648;23.368;2023-07-31T03:31:58;22.55;;;20.25;;
10945;SDS011;5525;42.648;23.368;2023-07-31T03:34:25;22.70;;;20.30;;
10945;SDS011;5525;42.648;23.368;2023-07-31T03:36:52;22.48;;;20.13;;
10945;SDS011;5525;42.648;23.368;2023-07-31T03:39:19;23.33;;;20.35;;
10945;SDS011;5525;42.648;23.368;2023-07-31T03:41:45;22.25;;;19.40;;
10945;SDS011;5525;42.648;23.368;2023-07-31T03:44:13;23.00;;;20.20;;
10945;SDS011;5525;42.648;23.368;2023-07-31T03:46:40;22.85;;;20.35;;
10945;SDS011;5525;42.648;23.368;2023-07-31T03:49:07;22.83;;;20.13;;
10945;SDS011;5525;42.648;23.368;2023-07-31T03:51:34;23.23;;;19.90;;
10945;SDS011;5525;42.648;23.368;2023-07-31T03:54:00;22.80;;;19.85;;
10945;SDS011;5525;42.648;23.368;2023-07-31T03:56:27;24.17;;;20.60;;
10945;SDS011;5525;42.648;23.368;2023-07-31T03:58:54;23.70;;;21.17;;
10945;SDS011;5525;42.648;23.368;2023-07-31T04:01:22;23.77;;;20.73;;
10945;SDS011;5525;42.648;23.368;2023-07-31T04:03:48;21.88;;;18.90;;
10945;SDS011;5525;42.648;23.368;2023-07-31T04:06:15;23.13;;;20.70;;
10945;SDS011;5525;42.648;23.368;2023-07-31T04:08:43;25.02;;;20.90;;
10945;SDS011;5525;42.648;23.368;2023-07-31T04:11:09;23.65;;;21.02;;
10945;SDS011;5525;42.648;23.368;2023-07-31T04:13:36;23.35;;;20.83;;
10945;SDS011;5525;42.648;23.368;2023-07-31T04:16:03;25.77;;;20.83;;
10945;SDS011;5525;42.648;23.368;2023-07-31T04:18:31;22.90;;;20.38;;
10945;SDS011;5525;42.648;23.368;2023-07-31T04:20:58;23.38;;;20.17;;
10945;SDS011;5525;42.648;23.368;2023-07-31T04:23:26;21.67;;;19.38;;
10945;SDS011;5525;42.648;23.368;2023-07-31T04:25:53;22.75;;;20.05;;
10945;SDS011;5525;42.648;23.368;2023-07-31T04:28:19;23.83;;;20.17;;
10945;SDS011;5525;42.648;23.368;2023-07-31T04:30:46;23.83;;;20.48;;
10945;SDS011;5525;42.648;23.368;2023-07-31T04:33:13;23.13;;;19.88;;
10945;SDS011;5525;42.648;23.368;2023-07-31T04:35:41;23.88;;;19.98;;
10945;SDS011;5525;42.648;23.368;2023-07-31T04:38:08;26.35;;;20.45;;
10945;SDS011;5525;42.648;23.368;2023-07-31T04:40:34;24.50;;;21.08;;
10945;SDS011;5525;42.648;23.368;2023-07-31T04:43:01;24.95;;;20.60;;
10945;SDS011;5525;42.648;23.368;2023-07-31T04:45:28;24.88;;;20.48;;
10945;SDS011;5525;42.648;23.368;2023-07-31T04:47:54;24.60;;;20.90;;
10945;SDS011;5525;42.648;23.368;2023-07-31T04:50:21;22.92;;;19.77;;
10945;SDS011;5525;42.648;23.368;2023-07-31T04:52:49;21.40;;;19.02;;
10945;SDS011;5525;42.648;23.368;2023-07-31T04:55:15;20.85;;;18.65;;
10945;SDS011;5525;42.648;23.368;2023-07-31T04:57:42;20.15;;;17.95;;
10945;SDS011;5525;42.648;23.368;2023-07-31T05:00:09;23.08;;;18.55;;
10945;SDS011;5525;42.648;23.368;2023-07-31T05:02:36;21.35;;;18.15;;
10945;SDS011;5525;42.648;23.368;2023-07-31T05:05:03;24.33;;;19.05;;
10945;SDS011;5525;42.648;23.368;2023-07-31T05:07:30;19.58;;;17.35;;
10945;SDS011;5525;42.648;23.368;2023-07-31T05:09:58;20.55;;;18.45;;
10945;SDS011;5525;42.648;23.368;2023-07-31T05:12:25;21.65;;;18.05;;
10945;SDS011;5525;42.648;23.368;2023-07-31T05:14:51;19.80;;;17.70;;
10945;SDS011;5525;42.648;23.368;2023-07-31T05:17:18;18.70;;;16.65;;
10945;SDS011;5525;42.648;23.368;2023-07-31T05:19:45;19.10;;;17.15;;
10945;SDS011;5525;42.648;23.368;2023-07-31T05:22:11;17.88;;;15.98;;
10945;SDS011;5525;42.648;23.368;2023-07-31T05:24:38;17.67;;;15.90;;
10945;SDS011;5525;42.648;23.368;2023-07-31T05:27:06;17.88;;;16.05;;
10945;SDS011;5525;42.648;23.368;2023-07-31T05:29:33;16.45;;;14.80;;
10945;SDS011;5525;42.648;23.368;2023-07-31T05:32:00;17.92;;;15.40;;
10945;SDS011;5525;42.648;23.368;2023-07-31T05:34:26;16.02;;;14.32;;
10945;SDS011;5525;42.648;23.368;2023-07-31T05:36:53;15.48;;;13.88;;
10945;SDS011;5525;42.648;23.368;2023-07-31T05:39:19;15.52;;;13.93;;
10945;SDS011;5525;42.648;23.368;2023-07-31T05:41:46;15.05;;;13.60;;
10945;SDS011;5525;42.648;23.368;2023-07-31T05:44:14;14.95;;;13.45;;
10945;SDS011;5525;42.648;23.368;2023-07-31T05:46:41;13.05;;;11.65;;
10945;SDS011;5525;42.648;23.368;2023-07-31T05:49:08;12.73;;;11.50;;
10945;SDS011;5525;42.648;23.368;2023-07-31T05:51:34;12.77;;;11.55;;
10945;SDS011;5525;42.648;23.368;2023-07-31T05:54:01;11.63;;;10.43;;
10945;SDS011;5525;42.648;23.368;2023-07-31T05:56:28;10.48;;;9.52;;
10945;SDS011;5525;42.648;23.368;2023-07-31T05:58:54;10.73;;;9.73;;
10945;SDS011;5525;42.648;23.368;2023-07-31T06:01:23;9.90;;;8.90;;
10945;SDS011;5525;42.648;23.368;2023-07-31T06:03:50;10.48;;;8.98;;
10945;SDS011;5525;42.648;23.368;2023-07-31T06:06:16;9.25;;;8.38;;
10945;SDS011;5525;42.648;23.368;2023-07-31T06:08:43;8.80;;;8.00;;
10945;SDS011;5525;42.648;23.368;2023-07-31T06:11:11;8.48;;;7.68;;
10945;SDS011;5525;42.648;23.368;2023-07-31T06:13:38;7.50;;;6.90;;
10945;SDS011;5525;42.648;23.368;2023-07-31T06:16:04;7.93;;;7.22;;
10945;SDS011;5525;42.648;23.368;2023-07-31T06:18:32;7.60;;;6.90;;
10945;SDS011;5525;42.648;23.368;2023-07-31T06:20:59;7.82;;;6.15;;
10945;SDS011;5525;42.648;23.368;2023-07-31T06:23:26;6.80;;;6.20;;
10945;SDS011;5525;42.648;23.368;2023-07-31T06:25:52;6.18;;;5.57;;
10945;SDS011;5525;42.648;23.368;2023-07-31T06:28:19;5.95;;;5.35;;
10945;SDS011;5525;42.648;23.368;2023-07-31T06:30:46;5.40;;;4.90;;
10945;SDS011;5525;42.648;23.368;2023-07-31T06:33:13;4.68;;;4.28;;
10945;SDS011;5525;42.648;23.368;2023-07-31T06:35:41;5.07;;;4.68;;
10945;SDS011;5525;42.648;23.368;2023-07-31T06:38:08;4.78;;;4.35;;
10945;SDS011;5525;42.648;23.368;2023-07-31T06:40:34;4.60;;;4.20;;
10945;SDS011;5525;42.648;23.368;2023-07-31T06:43:01;5.00;;;4.45;;
10945;SDS011;5525;42.648;23.368;2023-07-31T06:45:33;5.00;;;4.57;;
10945;SDS011;5525;42.648;23.368;2023-07-31T06:48:00;5.43;;;4.97;;
10945;SDS011;5525;42.648;23.368;2023-07-31T06:50:27;5.47;;;4.32;;
10945;SDS011;5525;42.648;23.368;2023-07-31T06:52:55;4.90;;;4.43;;
10945;SDS011;5525;42.648;23.368;2023-07-31T06:55:22;5.07;;;4.38;;
10945;SDS011;5525;42.648;23.368;2023-07-31T06:57:50;4.53;;;4.13;;
10945;SDS011;5525;42.648;23.368;2023-07-31T07:00:17;6.30;;;4.18;;
10945;SDS011;5525;42.648;23.368;2023-07-31T07:02:45;5.55;;;4.28;;
10945;SDS011;5525;42.648;23.368;2023-07-31T07:05:12;6.03;;;4.35;;
10945;SDS011;5525;42.648;23.368;2023-07-31T07:07:39;4.32;;;3.90;;
10945;SDS011;5525;42.648;23.368;2023-07-31T07:10:08;5.63;;;3.78;;
10945;SDS011;5525;42.648;23.368;2023-07-31T07:12:35;6.05;;;3.90;;
10945;SDS011;5525;42.648;23.368;2023-07-31T07:15:02;3.97;;;3.65;;
10945;SDS011;5525;42.648;23.368;2023-07-31T07:17:30;3.72;;;3.42;;
10945;SDS011;5525;42.648;23.368;2023-07-31T07:19:57;5.40;;;3.58;;
10945;SDS011;5525;42.648;23.368;2023-07-31T07:22:23;5.95;;;3.50;;
10945;SDS011;5525;42.648;23.368;2023-07-31T07:24:50;4.38;;;3.97;;
10945;SDS011;5525;42.648;23.368;2023-07-31T07:27:18;3.90;;;3.60;;
10945;SDS011;5525;42.648;23.368;2023-07-31T07:29:45;3.92;;;3.22;;
10945;SDS011;5525;42.648;23.368;2023-07-31T07:32:12;4.28;;;2.88;;
10945;SDS011;5525;42.648;23.368;2023-07-31T07:34:39;3.30;;;3.00;;
10945;SDS011;5525;42.648;23.368;2023-07-31T07:37:06;3.03;;;2.83;;
10945;SDS011;5525;42.648;23.368;2023-07-31T07:39:32;3.60;;;3.00;;
10945;SDS011;5525;42.648;23.368;2023-07-31T07:41:59;4.35;;;3.10;;
10945;SDS011;5525;42.648;23.368;2023-07-31T07:44:27;3.10;;;2.80;;
10945;SDS011;5525;42.648;23.368;2023-07-31T07:46:53;3.17;;;2.88;;
10945;SDS011;5525;42.648;23.368;2023-07-31T07:49:20;4.65;;;3.40;;
10945;SDS011;5525;42.648;23.368;2023-07-31T07:51:47;4.00;;;3.45;;
10945;SDS011;5525;42.648;23.368;2023-07-31T07:54:14;4.82;;;4.25;;
10945;SDS011;5525;42.648;23.368;2023-07-31T07:56:42;3.67;;;3.38;;
10945;SDS011;5525;42.648;23.368;2023-07-31T07:59:09;3.50;;;3.20;;
10945;SDS011;5525;42.648;23.368;2023-07-31T08:01:37;5.28;;;3.17;;
10945;SDS011;5525;42.648;23.368;2023-07-31T08:04:03;3.35;;;2.85;;
10945;SDS011;5525;42.648;23.368;2023-07-31T08:06:30;3.65;;;3.03;;
10945;SDS011;5525;42.648;23.368;2023-07-31T08:08:56;2.90;;;2.70;;
10945;SDS011;5525;42.648;23.368;2023-07-31T08:11:23;3.63;;;2.70;;
10945;SDS011;5525;42.648;23.368;2023-07-31T08:13:50;3.25;;;2.97;;
10945;SDS011;5525;42.648;23.368;2023-07-31T08:16:16;3.30;;;2.97;;
10945;SDS011;5525;42.648;23.368;2023-07-31T08:18:44;3.13;;;2.92;;
10945;SDS011;5525;42.648;23.368;2023-07-31T08:21:11;3.03;;;2.80;;
10945;SDS011;5525;42.648;23.368;2023-07-31T08:23:38;3.17;;;2.88;;
10945;SDS011;5525;42.648;23.368;2023-07-31T08:26:04;3.63;;;3.33;;
10945;SDS011;5525;42.648;23.368;2023-07-31T08:28:31;4.78;;;3.47;;
10945;SDS011;5525;42.648;23.368;2023-07-31T08:30:58;4.68;;;3.15;;
10945;SDS011;5525;42.648;23.368;2023-07-31T08:33:24;3.92;;;2.95;;
10945;SDS011;5525;42.648;23.368;2023-07-31T08:35:53;3.40;;;3.10;;
10945;SDS011;5525;42.648;23.368;2023-07-31T08:38:20;3.78;;;3.30;;
10945;SDS011;5525;42.648;23.368;2023-07-31T08:40:50;3.88;;;3.20;;
10945;SDS011;5525;42.648;23.368;2023-07-31T08:43:17;3.40;;;3.10;;
10945;SDS011;5525;42.648;23.368;2023-07-31T08:45:46;4.60;;;3.80;;
10945;SDS011;5525;42.648;23.368;2023-07-31T08:48:15;3.35;;;2.97;;
10945;SDS011;5525;42.648;23.368;2023-07-31T08:50:42;3.38;;;2.83;;
10945;SDS011;5525;42.648;23.368;2023-07-31T08:53:10;4.60;;;3.40;;
10945;SDS011;5525;42.648;23.368;2023-07-31T08:55:37;4.55;;;3.17;;
10945;SDS011;5525;42.648;23.368;2023-07-31T08:58:04;3.10;;;2.90;;
10945;SDS011;5525;42.648;23.368;2023-07-31T09:00:31;3.55;;;3.15;;
10945;SDS011;5525;42.648;23.368;2023-07-31T09:02:59;5.57;;;3.20;;
10945;SDS011;5525;42.648;23.368;2023-07-31T09:05:29;2.90;;;2.70;;
10945;SDS011;5525;42.648;23.368;2023-07-31T09:07:57;4.75;;;2.70;;
10945;SDS011;5525;42.648;23.368;2023-07-31T09:10:26;2.90;;;2.70;;
10945;SDS011;5525;42.648;23.368;2023-07-31T09:12:52;3.58;;;2.90;;
10945;SDS011;5525;42.648;23.368;2023-07-31T09:15:19;3.17;;;2.83;;
10945;SDS011;5525;42.648;23.368;2023-07-31T09:17:46;2.83;;;2.63;;
10945;SDS011;5525;42.648;23.368;2023-07-31T09:20:13;3.38;;;2.60;;
10945;SDS011;5525;42.648;23.368;2023-07-31T09:22:41;3.35;;;2.63;;
10945;SDS011;5525;42.648;23.368;2023-07-31T09:25:15;3.03;;;2.78;;
10945;SDS011;5525;42.648;23.368;2023-07-31T09:27:47;2.92;;;2.65;;
10945;SDS011;5525;42.648;23.368;2023-07-31T09:30:15;3.50;;;2.80;;
10945;SDS011;5525;42.648;23.368;2023-07-31T09:32:43;3.15;;;2.70;;
10945;SDS011;5525;42.648;23.368;2023-07-31T09:35:18;3.05;;;2.72;;
10945;SDS011;5525;42.648;23.368;2023-07-31T09:37:49;3.30;;;2.80;;
10945;SDS011;5525;42.648;23.368;2023-07-31T09:40:29;3.15;;;2.85;;
10945;SDS011;5525;42.648;23.368;2023-07-31T09:42:58;3.60;;;3.30;;
10945;SDS011;5525;42.648;23.368;2023-07-31T09:45:26;3.38;;;3.08;;
10945;SDS011;5525;42.648;23.368;2023-07-31T09:47:53;3.15;;;2.95;;
10945;SDS011;5525;42.648;23.368;2023-07-31T09:50:21;4.28;;;3.30;;
10945;SDS011;5525;42.648;23.368;2023-07-31T09:52:48;3.63;;;3.10;;
10945;SDS011;5525;42.648;23.368;2023-07-31T09:55:15;3.92;;;3.22;;
10945;SDS011;5525;42.648;23.368;2023-07-31T09:57:43;4.68;;;3.03;;
10945;SDS011;5525;42.648;23.368;2023-07-31T10:00:13;3.03;;;2.65;;
10945;SDS011;5525;42.648;23.368;2023-07-31T10:02:41;4.75;;;3.20;;
10945;SDS011;5525;42.648;23.368;2023-07-31T10:05:10;3.85;;;3.20;;
10945;SDS011;5525;42.648;23.368;2023-07-31T10:07:39;3.85;;;2.78;;
10945;SDS011;5525;42.648;23.368;2023-07-31T10:10:08;3.05;;;2.78;;
10945;SDS011;5525;42.648;23.368;2023-07-31T10:12:36;3.67;;;2.88;;
10945;SDS011;5525;42.648;23.368;2023-07-31T10:15:04;4.03;;;2.60;;
10945;SDS011;5525;42.648;23.368;2023-07-31T10:17:33;3.08;;;2.78;;
10945;SDS011;5525;42.648;23.368;2023-07-31T10:20:02;3.97;;;2.80;;
10945;SDS011;5525;42.648;23.368;2023-07-31T10:22:30;2.70;;;2.50;;
10945;SDS011;5525;42.648;23.368;2023-07-31T10:24:57;4.05;;;2.60;;
10945;SDS011;5525;42.648;23.368;2023-07-31T10:27:25;2.65;;;2.45;;
10945;SDS011;5525;42.648;23.368;2023-07-31T10:29:52;3.92;;;2.38;;
10945;SDS011;5525;42.648;23.368;2023-07-31T10:32:20;2.78;;;2.50;;
10945;SDS011;5525;42.648;23.368;2023-07-31T10:34:50;4.60;;;2.50;;
10945;SDS011;5525;42.648;23.368;2023-07-31T10:37:24;2.75;;;2.30;;
10945;SDS011;5525;42.648;23.368;2023-07-31T10:39:58;3.42;;;2.08;;
10945;SDS011;5525;42.648;23.368;2023-07-31T10:42:27;2.33;;;2.13;;
10945;SDS011;5525;42.648;23.368;2023-07-31T10:44:56;2.63;;;2.40;;
10945;SDS011;5525;42.648;23.368;2023-07-31T10:47:24;4.03;;;2.70;;
10945;SDS011;5525;42.648;23.368;2023-07-31T10:49:52;2.58;;;2.38;;
10945;SDS011;5525;42.648;23.368;2023-07-31T10:52:19;2.50;;;2.30;;
10945;SDS011;5525;42.648;23.368;2023-07-31T10:54:56;2.40;;;2.20;;
10945;SDS011;5525;42.648;23.368;2023-07-31T10:57:40;2.40;;;2.20;;
10945;SDS011;5525;42.648;23.368;2023-07-31T11:02:56;2.42;;;2.22;;
10945;SDS011;5525;42.648;23.368;2023-07-31T11:05:47;2.53;;;2.28;;
10945;SDS011;5525;42.648;23.368;2023-07-31T11:08:19;2.85;;;2.40;;
10945;SDS011;5525;42.648;23.368;2023-07-31T11:10:48;3.42;;;2.35;;
10945;SDS011;5525;42.648;23.368;2023-07-31T11:13:15;4.53;;;3.00;;
10945;SDS011;5525;42.648;23.368;2023-07-31T11:15:42;2.60;;;2.40;;
10945;SDS011;5525;42.648;23.368;2023-07-31T11:18:09;2.67;;;2.05;;
10945;SDS011;5525;42.648;23.368;2023-07-31T11:20:36;3.05;;;2.00;;
10945;SDS011;5525;42.648;23.368;2023-07-31T11:23:07;2.20;;;2.00;;
10945;SDS011;5525;42.648;23.368;2023-07-31T11:25:35;1.73;;;1.63;;
10945;SDS011;5525;42.648;23.368;2023-07-31T11:28:06;2.42;;;2.10;;
10945;SDS011;5525;42.648;23.368;2023-07-31T11:30:34;2.63;;;2.40;;
10945;SDS011;5525;42.648;23.368;2023-07-31T11:33:02;4.10;;;2.50;;
10945;SDS011;5525;42.648;23.368;2023-07-31T11:35:31;4.55;;;2.20;;
10945;SDS011;5525;42.648;23.368;2023-07-31T11:37:59;2.72;;;2.00;;
10945;SDS011;5525;42.648;23.368;2023-07-31T11:40:29;2.30;;;2.10;;
10945;SDS011;5525;42.648;23.368;2023-07-31T11:42:56;4.18;;;2.25;;
10945;SDS011;5525;42.648;23.368;2023-07-31T11:45:26;2.38;;;2.17;;
10945;SDS011;5525;42.648;23.368;2023-07-31T11:47:54;5.05;;;2.20;;
10945;SDS011;5525;42.648;23.368;2023-07-31T11:50:22;2.70;;;1.92;;
10945;SDS011;5525;42.648;23.368;2023-07-31T11:52:51;2.63;;;2.42;;
10945;SDS011;5525;42.648;23.368;2023-07-31T11:55:21;3.20;;;2.78;;
10945;SDS011;5525;42.648;23.368;2023-07-31T11:57:49;4.00;;;2.75;;
10945;SDS011;5525;42.648;23.368;2023-07-31T12:00:17;3.08;;;2.30;;
10945;SDS011;5525;42.648;23.368;2023-07-31T12:02:44;2.67;;;2.40;;
10945;SDS011;5525;42.648;23.368;2023-07-31T12:05:11;2.40;;;2.20;;
10945;SDS011;5525;42.648;23.368;2023-07-31T12:07:48;3.45;;;2.47;;
10945;SDS011;5525;42.648;23.368;2023-07-31T12:10:23;2.60;;;2.40;;
10945;SDS011;5525;42.648;23.368;2023-07-31T12:13:02;2.70;;;2.50;;
10945;SDS011;5525;42.648;23.368;2023-07-31T12:15:32;2.97;;;2.60;;
10945;SDS011;5525;42.648;23.368;2023-07-31T12:17:59;2.80;;;2.60;;
10945;SDS011;5525;42.648;23.368;2023-07-31T12:20:26;4.38;;;3.03;;
10945;SDS011;5525;42.648;23.368;2023-07-31T12:22:53;3.30;;;2.95;;
10945;SDS011;5525;42.648;23.368;2023-07-31T12:25:22;3.28;;;2.97;;
10945;SDS011;5525;42.648;23.368;2023-07-31T12:27:50;3.88;;;2.78;;
10945;SDS011;5525;42.648;23.368;2023-07-31T12:30:28;2.95;;;2.75;;
10945;SDS011;5525;42.648;23.368;2023-07-31T12:32:55;4.65;;;4.13;;
10945;SDS011;5525;42.648;23.368;2023-07-31T12:35:22;4.55;;;4.15;;
10945;SDS011;5525;42.648;23.368;2023-07-31T12:37:49;5.25;;;4.75;;
10945;SDS011;5525;42.648;23.368;2023-07-31T12:40:16;5.72;;;5.22;;
10945;SDS011;5525;42.648;23.368;2023-07-31T12:42:42;6.00;;;5.20;;
10945;SDS011;5525;42.648;23.368;2023-07-31T12:45:09;5.10;;;4.70;;
10945;SDS011;5525;42.648;23.368;2023-07-31T12:47:37;4.90;;;4.50;;
10945;SDS011;5525;42.648;23.368;2023-07-31T12:50:04;4.38;;;4.07;;
10945;SDS011;5525;42.648;23.368;2023-07-31T12:52:32;4.80;;;4.40;;
10945;SDS011;5525;42.648;23.368;2023-07-31T12:54:58;4.80;;;4.20;;
10945;SDS011;5525;42.648;23.368;2023-07-31T12:57:25;5.20;;;4.20;;
10945;SDS011;5525;42.648;23.368;2023-07-31T12:59:52;5.80;;;4.00;;
10945;SDS011;5525;42.648;23.368;2023-07-31T13:02:19;4.45;;;4.05;;
10945;SDS011;5525;42.648;23.368;2023-07-31T13:04:47;5.00;;;4.50;;
10945;SDS011;5525;42.648;23.368;2023-07-31T13:07:13;5.63;;;4.97;;
10945;SDS011;5525;42.648;23.368;2023-07-31T13:09:40;6.72;;;4.88;;
10945;SDS011;5525;42.648;23.368;2023-07-31T13:12:07;5.28;;;4.80;;
10945;SDS011;5525;42.648;23.368;2023-07-31T13:14:34;5.50;;;5.00;;
10945;SDS011;5525;42.648;23.368;2023-07-31T13:17:00;5.80;;;5.20;;
10945;SDS011;5525;42.648;23.368;2023-07-31T13:19:27;6.97;;;5.55;;
10945;SDS011;5525;42.648;23.368;2023-07-31T13:21:55;6.53;;;5.93;;
10945;SDS011;5525;42.648;23.368;2023-07-31T13:24:22;6.30;;;5.80;;
10945;SDS011;5525;42.648;23.368;2023-07-31T13:26:48;6.18;;;5.53;;
10945;SDS011;5525;42.648;23.368;2023-07-31T13:29:15;5.78;;;5.25;;
10945;SDS011;5525;42.648;23.368;2023-07-31T13:31:42;6.25;;;5.43;;
10945;SDS011;5525;42.648;23.368;2023-07-31T13:34:08;4.90;;;4.45;;
10945;SDS011;5525;42.648;23.368;2023-07-31T13:36:35;6.15;;;5.30;;
10945;SDS011;5525;42.648;23.368;2023-07-31T13:39:03;5.20;;;4.70;;
10945;SDS011;5525;42.648;23.368;2023-07-31T13:41:30;6.82;;;4.60;;
10945;SDS011;5525;42.648;23.368;2023-07-31T13:43:56;4.90;;;4.50;;
10945;SDS011;5525;42.648;23.368;2023-07-31T13:46:23;6.03;;;4.53;;
10945;SDS011;5525;42.648;23.368;2023-07-31T13:48:50;4.93;;;4.50;;
10945;SDS011;5525;42.648;23.368;2023-07-31T13:51:19;4.78;;;4.25;;
10945;SDS011;5525;42.648;23.368;2023-07-31T13:53:46;5.22;;;4.18;;
10945;SDS011;5525;42.648;23.368;2023-07-31T13:56:14;6.75;;;4.85;;
10945;SDS011;5525;42.648;23.368;2023-07-31T13:58:41;4.90;;;4.50;;
10945;SDS011;5525;42.648;23.368;2023-07-31T14:01:07;5.53;;;5.03;;
10945;SDS011;5525;42.648;23.368;2023-07-31T14:03:34;5.03;;;4.05;;
10945;SDS011;5525;42.648;23.368;2023-07-31T14:06:01;5.05;;;4.55;;
10945;SDS011;5525;42.648;23.368;2023-07-31T14:08:28;4.20;;;3.90;;
10945;SDS011;5525;42.648;23.368;2023-07-31T14:10:56;4.90;;;3.92;;
10945;SDS011;5525;42.648;23.368;2023-07-31T14:13:24;6.10;;;4.50;;
10945;SDS011;5525;42.648;23.368;2023-07-31T14:15:51;4.70;;;4.30;;
10945;SDS011;5525;42.648;23.368;2023-07-31T14:18:18;4.70;;;4.30;;
10945;SDS011;5525;42.648;23.368;2023-07-31T14:20:45;5.03;;;4.53;;
10945;SDS011;5525;42.648;23.368;2023-07-31T14:23:11;4.85;;;4.43;;
10945;SDS011;5525;42.648;23.368;2023-07-31T14:25:38;4.25;;;3.85;;
10945;SDS011;5525;42.648;23.368;2023-07-31T14:28:05;4.82;;;4.00;;
10945;SDS011;5525;42.648;23.368;2023-07-31T14:30:33;4.13;;;3.80;;
10945;SDS011;5525;42.648;23.368;2023-07-31T14:32:59;5.15;;;4.35;;
10945;SDS011;5525;42.648;23.368;2023-07-31T14:35:27;5.68;;;4.53;;
10945;SDS011;5525;42.648;23.368;2023-07-31T14:37:54;4.53;;;4.13;;
10945;SDS011;5525;42.648;23.368;2023-07-31T14:40:20;4.70;;;4.30;;
10945;SDS011;5525;42.648;23.368;2023-07-31T14:42:47;6.10;;;4.20;;
10945;SDS011;5525;42.648;23.368;2023-07-31T14:45:14;4.63;;;4.22;;
10945;SDS011;5525;42.648;23.368;2023-07-31T14:47:42;4.80;;;4.40;;